createdAt,value
2022-08-17T00:00:04.249Z,115.000000
2022-08-17T00:01:00.717Z,115.000000
2022-08-17T00:02:01.482Z,32.500000
2022-08-17T00:03:00.677Z,32.500000
2022-08-17T00:04:00.765Z,20.000000
2022-08-17T00:05:03.555Z,20.000000
2022-08-17T00:06:00.768Z,75.000000
2022-08-17T00:07:00.696Z,75.000000
2022-08-17T00:08:00.805Z,75.000000
2022-08-17T00:09:00.725Z,92.500000
2022-08-17T00:10:03.895Z,92.500000
2022-08-17T00:11:00.722Z,92.500000
2022-08-17T00:12:43.786Z,92.500000
2022-08-17T00:13:00.740Z,92.500000
2022-08-17T00:14:00.853Z,65.000000
2022-08-17T00:15:03.812Z,65.000000
2022-08-17T00:16:00.844Z,55.000000
2022-08-17T00:17:00.786Z,55.000000
2022-08-17T00:18:00.900Z,55.000000
2022-08-17T00:19:07.973Z,305.000000
2022-08-17T00:20:05.344Z,305.000000
2022-08-17T00:21:00.802Z,305.000000
2022-08-17T00:22:31.047Z,312.500000
2022-08-17T00:23:00.811Z,312.500000
2022-08-17T00:24:00.918Z,170.000000
2022-08-17T00:25:03.930Z,170.000000
2022-08-17T00:26:00.943Z,170.000000
2022-08-17T00:27:00.840Z,132.500000
2022-08-17T00:28:00.917Z,132.500000
2022-08-17T00:29:00.847Z,95.000000
2022-08-17T00:30:05.355Z,95.000000
2022-08-17T00:31:00.862Z,92.500000
2022-08-17T00:32:00.975Z,92.500000
2022-08-17T00:33:11.593Z,92.500000
2022-08-17T00:34:00.951Z,100.000000
2022-08-17T00:35:03.917Z,100.000000
2022-08-17T00:36:01.015Z,105.000000
2022-08-17T00:37:00.917Z,105.000000
2022-08-17T00:38:00.993Z,115.000000
2022-08-17T00:39:00.923Z,115.000000
2022-08-17T00:40:04.419Z,115.000000
2022-08-17T00:41:00.934Z,180.000000
2022-08-17T00:42:01.048Z,180.000000
2022-08-17T00:43:00.953Z,180.000000
2022-08-17T00:44:01.044Z,15.000000
2022-08-17T00:45:04.459Z,15.000000
2022-08-17T00:46:01.032Z,15.000000
2022-08-17T00:47:00.972Z,57.500000
2022-08-17T00:48:01.058Z,57.500000
2022-08-17T00:49:00.986Z,77.500000
2022-08-17T00:50:04.281Z,77.500000
2022-08-17T00:51:01.030Z,77.500000
2022-08-17T00:52:01.115Z,112.500000
2022-08-17T00:53:01.025Z,112.500000
2022-08-17T00:54:01.142Z,112.500000
2022-08-17T00:55:04.115Z,115.000000
2022-08-17T00:56:01.156Z,115.000000
2022-08-17T00:57:01.062Z,107.500000
2022-08-17T00:58:01.131Z,107.500000
2022-08-17T00:59:01.063Z,110.000000
2022-08-17T01:00:04.506Z,110.000000
2022-08-17T01:01:01.182Z,110.000000
2022-08-17T01:02:01.335Z,120.000000
2022-08-17T01:03:01.121Z,120.000000
2022-08-17T01:04:01.163Z,102.500000
2022-08-17T01:05:04.008Z,102.500000
2022-08-17T01:06:01.219Z,102.500000
2022-08-17T01:07:01.135Z,117.500000
2022-08-17T01:08:01.228Z,117.500000
2022-08-17T01:09:01.160Z,117.500000
2022-08-17T01:10:04.613Z,95.000000
2022-08-17T01:11:01.947Z,95.000000
2022-08-17T01:12:00.252Z,75.000000
2022-08-17T01:13:00.174Z,75.000000
2022-08-17T01:14:00.236Z,75.000000
2022-08-17T01:15:03.094Z,100.000000
2022-08-17T01:16:00.230Z,100.000000
2022-08-17T01:17:00.196Z,100.000000
2022-08-17T01:18:00.256Z,100.000000
2022-08-17T01:19:00.259Z,100.000000
2022-08-17T01:20:03.395Z,127.500000
2022-08-17T01:21:00.211Z,127.500000
2022-08-17T01:22:00.291Z,107.500000
2022-08-17T01:23:00.233Z,107.500000
2022-08-17T01:24:00.287Z,107.500000
2022-08-17T01:25:02.998Z,107.500000
2022-08-17T01:26:00.406Z,107.500000
2022-08-17T01:27:00.257Z,110.000000
2022-08-17T01:28:00.336Z,110.000000
2022-08-17T01:29:00.262Z,110.000000
2022-08-17T01:30:03.851Z,142.500000
2022-08-17T01:31:00.278Z,142.500000
2022-08-17T01:32:00.382Z,145.000000
2022-08-17T01:33:00.300Z,145.000000
2022-08-17T01:34:00.610Z,145.000000
2022-08-17T01:35:03.312Z,145.000000
2022-08-17T01:36:00.434Z,145.000000
2022-08-17T01:37:00.305Z,95.000000
2022-08-17T01:38:00.461Z,95.000000
2022-08-17T01:39:00.337Z,95.000000
2022-08-17T01:40:04.179Z,77.500000
2022-08-17T01:41:00.345Z,77.500000
2022-08-17T01:42:00.472Z,77.500000
2022-08-17T01:43:00.368Z,105.000000
2022-08-17T01:44:00.456Z,105.000000
2022-08-17T01:45:14.174Z,92.500000
2022-08-17T01:46:02.717Z,92.500000
2022-08-17T01:47:00.378Z,35.000000
2022-08-17T01:48:00.470Z,35.000000
2022-08-17T01:49:00.394Z,35.000000
2022-08-17T01:50:03.600Z,105.000000
2022-08-17T01:51:00.443Z,105.000000
2022-08-17T01:52:00.521Z,107.500000
2022-08-17T01:53:00.447Z,107.500000
2022-08-17T01:54:00.643Z,107.500000
2022-08-17T01:55:04.767Z,140.000000
2022-08-17T01:56:00.526Z,140.000000
2022-08-17T01:57:00.462Z,112.500000
2022-08-17T01:58:00.534Z,112.500000
2022-08-17T01:59:00.462Z,112.500000
2022-08-17T02:00:03.849Z,97.500000
2022-08-17T02:01:01.645Z,97.500000
2022-08-17T02:02:00.571Z,97.500000
2022-08-17T02:03:00.516Z,97.500000
2022-08-17T02:04:01.765Z,97.500000
2022-08-17T02:05:03.441Z,60.000000
2022-08-17T02:06:00.598Z,60.000000
2022-08-17T02:07:00.565Z,55.000000
2022-08-17T02:08:00.888Z,55.000000
2022-08-17T02:09:02.231Z,55.000000
2022-08-17T02:10:05.044Z,42.500000
2022-08-17T02:11:00.568Z,42.500000
2022-08-17T02:12:38.103Z,42.500000
2022-08-17T02:13:00.619Z,55.000000
2022-08-17T02:14:02.922Z,55.000000
2022-08-17T02:15:04.813Z,55.000000
2022-08-17T02:16:00.661Z,45.000000
2022-08-17T02:17:00.600Z,45.000000
2022-08-17T02:18:00.690Z,30.000000
2022-08-17T02:19:00.654Z,30.000000
2022-08-17T02:20:04.230Z,62.500000
2022-08-17T02:21:00.643Z,62.500000
2022-08-17T02:22:00.701Z,62.500000
2022-08-17T02:23:00.660Z,105.000000
2022-08-17T02:24:00.741Z,105.000000
2022-08-17T02:25:03.639Z,105.000000
2022-08-17T02:26:00.769Z,35.000000
2022-08-17T02:27:00.683Z,35.000000
2022-08-17T02:28:00.746Z,355.000000
2022-08-17T02:29:00.694Z,355.000000
2022-08-17T02:30:04.061Z,355.000000
2022-08-17T02:31:03.203Z,355.000000
2022-08-17T02:32:00.751Z,355.000000
2022-08-17T02:33:00.712Z,352.500000
2022-08-17T02:34:04.729Z,352.500000
2022-08-17T02:35:04.287Z,352.500000
2022-08-17T02:36:00.811Z,45.000000
2022-08-17T02:37:00.749Z,45.000000
2022-08-17T02:38:00.798Z,45.000000
2022-08-17T02:39:00.756Z,82.500000
2022-08-17T02:40:03.783Z,82.500000
2022-08-17T02:41:00.753Z,105.000000
2022-08-17T02:42:00.864Z,105.000000
2022-08-17T02:43:00.788Z,115.000000
2022-08-17T02:44:00.837Z,115.000000
2022-08-17T02:45:04.290Z,115.000000
2022-08-17T02:46:03.187Z,115.000000
2022-08-17T02:47:00.785Z,115.000000
2022-08-17T02:48:00.921Z,115.000000
2022-08-17T02:49:00.824Z,117.500000
2022-08-17T02:50:04.049Z,117.500000
2022-08-17T02:51:00.836Z,117.500000
2022-08-17T02:52:00.937Z,117.500000
2022-08-17T02:53:02.453Z,117.500000
2022-08-17T02:54:35.753Z,117.500000
2022-08-17T02:55:03.765Z,117.500000
2022-08-17T02:56:00.933Z,120.000000
2022-08-17T02:57:00.865Z,120.000000
2022-08-17T02:58:00.986Z,120.000000
2022-08-17T02:59:00.864Z,122.500000
2022-08-17T03:00:04.257Z,122.500000
2022-08-17T03:01:00.906Z,122.500000
2022-08-17T03:02:01.057Z,122.500000
2022-08-17T03:03:00.930Z,122.500000
2022-08-17T03:04:00.981Z,122.500000
2022-08-17T03:05:03.955Z,122.500000
2022-08-17T03:06:01.052Z,122.500000
2022-08-17T03:07:00.948Z,122.500000
2022-08-17T03:08:01.056Z,122.500000
2022-08-17T03:09:00.966Z,122.500000
2022-08-17T03:10:04.412Z,122.500000
2022-08-17T03:11:00.986Z,112.500000
2022-08-17T03:12:01.075Z,112.500000
2022-08-17T03:13:00.997Z,112.500000
2022-08-17T03:14:01.086Z,92.500000
2022-08-17T03:15:03.996Z,92.500000
2022-08-17T03:16:01.108Z,130.000000
2022-08-17T03:17:01.027Z,130.000000
2022-08-17T03:18:01.108Z,130.000000
2022-08-17T03:19:01.036Z,142.500000
2022-08-17T03:20:04.237Z,142.500000
2022-08-17T03:21:01.049Z,162.500000
2022-08-17T03:22:01.128Z,162.500000
2022-08-17T03:23:02.005Z,162.500000
2022-08-17T03:24:01.171Z,165.000000
2022-08-17T03:25:03.994Z,165.000000
2022-08-17T03:26:01.144Z,165.000000
2022-08-17T03:27:01.099Z,165.000000
2022-08-17T03:28:01.149Z,147.500000
2022-08-17T03:29:01.089Z,147.500000
2022-08-17T03:30:06.173Z,147.500000
2022-08-17T03:31:01.120Z,92.500000
2022-08-17T03:32:01.200Z,92.500000
2022-08-17T03:33:01.144Z,92.500000
2022-08-17T03:34:01.235Z,125.000000
2022-08-17T03:35:04.217Z,125.000000
2022-08-17T03:36:01.277Z,150.000000
2022-08-17T03:37:01.152Z,150.000000
2022-08-17T03:38:01.445Z,150.000000
2022-08-17T03:39:00.167Z,150.000000
2022-08-17T03:40:03.515Z,150.000000
2022-08-17T03:41:00.184Z,132.500000
2022-08-17T03:42:00.374Z,132.500000
2022-08-17T03:43:00.194Z,132.500000
2022-08-17T03:44:00.276Z,150.000000
2022-08-17T03:45:03.113Z,150.000000
2022-08-17T03:46:00.314Z,155.000000
2022-08-17T03:47:00.214Z,155.000000
2022-08-17T03:48:00.356Z,155.000000
2022-08-17T03:49:00.232Z,155.000000
2022-08-17T03:50:03.692Z,155.000000
2022-08-17T03:51:00.255Z,155.000000
2022-08-17T03:52:00.331Z,155.000000
2022-08-17T03:53:00.354Z,155.000000
2022-08-17T03:54:00.375Z,122.500000
2022-08-17T03:55:03.341Z,122.500000
2022-08-17T03:56:00.375Z,122.500000
2022-08-17T03:57:00.317Z,57.500000
2022-08-17T03:58:00.385Z,57.500000
2022-08-17T03:59:00.310Z,80.000000
2022-08-17T04:00:03.759Z,80.000000
2022-08-17T04:01:00.399Z,35.000000
2022-08-17T04:02:00.430Z,35.000000
2022-08-17T04:03:00.362Z,35.000000
2022-08-17T04:04:00.417Z,90.000000
2022-08-17T04:05:03.348Z,90.000000
2022-08-17T04:06:00.470Z,90.000000
2022-08-17T04:07:00.426Z,110.000000
2022-08-17T04:08:00.446Z,110.000000
2022-08-17T04:09:00.408Z,35.000000
2022-08-17T04:10:04.149Z,35.000000
2022-08-17T04:11:00.420Z,65.000000
2022-08-17T04:12:16.288Z,65.000000
2022-08-17T04:13:00.428Z,65.000000
2022-08-17T04:14:00.566Z,125.000000
2022-08-17T04:15:03.470Z,125.000000
2022-08-17T04:16:00.539Z,125.000000
2022-08-17T04:17:00.458Z,130.000000
2022-08-17T04:18:00.575Z,130.000000
2022-08-17T04:19:00.459Z,130.000000
2022-08-17T04:20:03.867Z,117.500000
2022-08-17T04:21:00.488Z,117.500000
2022-08-17T04:22:00.593Z,115.000000
2022-08-17T04:23:00.478Z,115.000000
2022-08-17T04:24:00.591Z,110.000000
2022-08-17T04:25:04.155Z,110.000000
2022-08-17T04:26:00.692Z,110.000000
2022-08-17T04:27:00.533Z,135.000000
2022-08-17T04:28:00.625Z,135.000000
2022-08-17T04:29:00.686Z,135.000000
2022-08-17T04:30:04.379Z,122.500000
2022-08-17T04:31:00.657Z,122.500000
2022-08-17T04:32:01.034Z,125.000000
2022-08-17T04:33:06.470Z,125.000000
2022-08-17T04:34:00.838Z,130.000000
2022-08-17T04:35:04.246Z,130.000000
2022-08-17T04:36:00.732Z,130.000000
2022-08-17T04:37:00.739Z,130.000000
2022-08-17T04:38:00.650Z,130.000000
2022-08-17T04:39:00.610Z,130.000000
2022-08-17T04:40:04.508Z,125.000000
2022-08-17T04:41:00.633Z,125.000000
2022-08-17T04:42:00.742Z,130.000000
2022-08-17T04:43:01.037Z,130.000000
2022-08-17T04:44:00.698Z,130.000000
2022-08-17T04:45:03.910Z,115.000000
2022-08-17T04:46:00.727Z,115.000000
2022-08-17T04:47:00.676Z,115.000000
2022-08-17T04:48:00.797Z,115.000000
2022-08-17T04:49:00.682Z,125.000000
2022-08-17T04:50:04.227Z,125.000000
2022-08-17T04:51:00.720Z,125.000000
2022-08-17T04:52:04.341Z,132.500000
2022-08-17T04:53:01.205Z,132.500000
2022-08-17T04:54:00.827Z,125.000000
2022-08-17T04:55:03.531Z,125.000000
2022-08-17T04:56:00.841Z,125.000000
2022-08-17T04:57:00.737Z,127.500000
2022-08-17T04:58:00.794Z,127.500000
2022-08-17T04:59:00.740Z,145.000000
2022-08-17T05:00:05.730Z,145.000000
2022-08-17T05:01:00.817Z,145.000000
2022-08-17T05:02:00.864Z,147.500000
2022-08-17T05:03:00.816Z,147.500000
2022-08-17T05:04:00.945Z,147.500000
2022-08-17T05:05:03.907Z,127.500000
2022-08-17T05:06:01.105Z,127.500000
2022-08-17T05:07:00.831Z,107.500000
2022-08-17T05:08:00.922Z,107.500000
2022-08-17T05:09:00.860Z,107.500000
2022-08-17T05:10:04.348Z,117.500000
2022-08-17T05:11:00.872Z,117.500000
2022-08-17T05:12:01.026Z,117.500000
2022-08-17T05:13:00.886Z,115.000000
2022-08-17T05:14:00.960Z,115.000000
2022-08-17T05:15:03.832Z,102.500000
2022-08-17T05:16:01.028Z,102.500000
2022-08-17T05:17:01.231Z,102.500000
2022-08-17T05:18:01.065Z,95.000000
2022-08-17T05:19:00.896Z,95.000000
2022-08-17T05:20:05.299Z,120.000000
2022-08-17T05:21:00.961Z,120.000000
2022-08-17T05:22:01.078Z,120.000000
2022-08-17T05:23:00.950Z,50.000000
2022-08-17T05:24:01.123Z,50.000000
2022-08-17T05:25:04.250Z,125.000000
2022-08-17T05:26:01.071Z,125.000000
2022-08-17T05:27:06.347Z,125.000000
2022-08-17T05:28:02.198Z,130.000000
2022-08-17T05:29:02.866Z,130.000000
2022-08-17T05:30:04.970Z,107.500000
2022-08-17T05:31:01.028Z,107.500000
2022-08-17T05:32:01.109Z,107.500000
2022-08-17T05:33:01.051Z,110.000000
2022-08-17T05:34:01.157Z,110.000000
2022-08-17T05:35:04.192Z,110.000000
2022-08-17T05:36:01.168Z,100.000000
2022-08-17T05:37:01.072Z,100.000000
2022-08-17T05:38:01.310Z,312.500000
2022-08-17T05:39:01.086Z,312.500000
2022-08-17T05:40:04.586Z,312.500000
2022-08-17T05:41:01.099Z,320.000000
2022-08-17T05:42:01.211Z,320.000000
2022-08-17T05:43:01.108Z,37.500000
2022-08-17T05:44:05.479Z,37.500000
2022-08-17T05:45:04.751Z,37.500000
2022-08-17T05:46:01.484Z,110.000000
2022-08-17T05:47:01.123Z,110.000000
2022-08-17T05:48:01.258Z,125.000000
2022-08-17T05:49:01.150Z,125.000000
2022-08-17T05:50:09.603Z,125.000000
2022-08-17T05:51:01.168Z,145.000000
2022-08-17T05:52:01.239Z,145.000000
2022-08-17T05:53:00.167Z,127.500000
2022-08-17T05:54:00.310Z,127.500000
2022-08-17T05:55:03.461Z,127.500000
2022-08-17T05:56:00.305Z,105.000000
2022-08-17T05:57:00.211Z,105.000000
2022-08-17T05:58:00.289Z,105.000000
2022-08-17T05:59:00.210Z,110.000000
2022-08-17T06:00:03.505Z,110.000000
2022-08-17T06:01:00.256Z,110.000000
2022-08-17T06:02:00.339Z,110.000000
2022-08-17T06:03:00.264Z,100.000000
2022-08-17T06:04:01.020Z,100.000000
2022-08-17T06:05:03.368Z,110.000000
2022-08-17T06:06:00.353Z,110.000000
2022-08-17T06:07:00.266Z,110.000000
2022-08-17T06:08:00.363Z,107.500000
2022-08-17T06:09:00.289Z,107.500000
2022-08-17T06:10:03.977Z,107.500000
2022-08-17T06:11:00.320Z,110.000000
2022-08-17T06:12:00.381Z,110.000000
2022-08-17T06:13:00.310Z,112.500000
2022-08-17T06:14:00.394Z,112.500000
2022-08-17T06:15:03.897Z,112.500000
2022-08-17T06:16:00.432Z,112.500000
2022-08-17T06:17:00.389Z,112.500000
2022-08-17T06:18:02.539Z,105.000000
2022-08-17T06:19:00.369Z,105.000000
2022-08-17T06:20:03.578Z,105.000000
2022-08-17T06:21:00.381Z,95.000000
2022-08-17T06:22:00.988Z,95.000000
2022-08-17T06:23:00.421Z,95.000000
2022-08-17T06:24:00.541Z,100.000000
2022-08-17T06:25:03.418Z,100.000000
2022-08-17T06:26:00.499Z,115.000000
2022-08-17T06:27:00.435Z,115.000000
2022-08-17T06:28:00.518Z,122.500000
2022-08-17T06:29:00.453Z,122.500000
2022-08-17T06:30:05.325Z,122.500000
2022-08-17T06:31:01.229Z,132.500000
2022-08-17T06:32:00.519Z,132.500000
2022-08-17T06:33:00.460Z,102.500000
2022-08-17T06:34:00.541Z,102.500000
2022-08-17T06:35:03.517Z,102.500000
2022-08-17T06:36:01.498Z,112.500000
2022-08-17T06:37:00.475Z,112.500000
2022-08-17T06:38:00.557Z,102.500000
2022-08-17T06:39:00.510Z,102.500000
2022-08-17T06:40:03.935Z,102.500000
2022-08-17T06:41:00.533Z,110.000000
2022-08-17T06:42:00.622Z,110.000000
2022-08-17T06:43:06.232Z,110.000000
2022-08-17T06:44:00.991Z,110.000000
2022-08-17T06:45:03.626Z,110.000000
2022-08-17T06:46:00.638Z,107.500000
2022-08-17T06:47:00.555Z,107.500000
2022-08-17T06:48:00.998Z,110.000000
2022-08-17T06:49:00.538Z,110.000000
2022-08-17T06:50:03.988Z,110.000000
2022-08-17T06:51:00.569Z,100.000000
2022-08-17T06:52:01.091Z,100.000000
2022-08-17T06:53:00.886Z,100.000000
2022-08-17T06:54:00.728Z,105.000000
2022-08-17T06:55:03.478Z,105.000000
2022-08-17T06:56:00.992Z,112.500000
2022-08-17T06:57:00.615Z,112.500000
2022-08-17T06:58:00.717Z,112.500000
2022-08-17T06:59:00.642Z,122.500000
2022-08-17T07:00:04.247Z,122.500000
2022-08-17T07:01:00.683Z,115.000000
2022-08-17T07:02:00.733Z,115.000000
2022-08-17T07:03:00.665Z,115.000000
2022-08-17T07:04:05.167Z,155.000000
2022-08-17T07:05:03.701Z,155.000000
2022-08-17T07:06:00.761Z,257.500000
2022-08-17T07:07:00.687Z,257.500000
2022-08-17T07:08:01.026Z,257.500000
2022-08-17T07:09:00.716Z,287.500000
2022-08-17T07:10:04.698Z,287.500000
2022-08-17T07:11:00.732Z,290.000000
2022-08-17T07:12:01.049Z,290.000000
2022-08-17T07:13:00.727Z,290.000000
2022-08-17T07:14:00.946Z,217.500000
2022-08-17T07:15:03.705Z,217.500000
2022-08-17T07:16:01.632Z,217.500000
2022-08-17T07:17:00.740Z,210.000000
2022-08-17T07:18:01.233Z,210.000000
2022-08-17T07:19:00.755Z,170.000000
2022-08-17T07:20:05.294Z,170.000000
2022-08-17T07:21:00.788Z,170.000000
2022-08-17T07:22:00.869Z,225.000000
2022-08-17T07:23:00.839Z,225.000000
2022-08-17T07:24:00.946Z,262.500000
2022-08-17T07:25:03.612Z,262.500000
2022-08-17T07:26:00.897Z,230.000000
2022-08-17T07:27:00.829Z,230.000000
2022-08-17T07:28:00.945Z,230.000000
2022-08-17T07:29:00.835Z,225.000000
2022-08-17T07:30:09.542Z,225.000000
2022-08-17T07:31:00.834Z,225.000000
2022-08-17T07:32:00.994Z,225.000000
2022-08-17T07:33:00.883Z,225.000000
2022-08-17T07:34:00.977Z,167.500000
2022-08-17T07:35:03.877Z,167.500000
2022-08-17T07:36:01.002Z,167.500000
2022-08-17T07:37:00.882Z,147.500000
2022-08-17T07:38:00.953Z,147.500000
2022-08-17T07:39:00.903Z,220.000000
2022-08-17T07:40:16.047Z,220.000000
2022-08-17T07:41:00.890Z,260.000000
2022-08-17T07:42:00.981Z,260.000000
2022-08-17T07:43:00.919Z,260.000000
2022-08-17T07:44:00.984Z,137.500000
2022-08-17T07:45:03.889Z,137.500000
2022-08-17T07:46:01.130Z,137.500000
2022-08-17T07:47:00.944Z,222.500000
2022-08-17T07:48:01.517Z,222.500000
2022-08-17T07:49:00.958Z,222.500000
2022-08-17T07:50:04.506Z,280.000000
2022-08-17T07:51:00.981Z,280.000000
2022-08-17T07:52:13.565Z,352.500000
2022-08-17T07:53:00.990Z,352.500000
2022-08-17T07:54:13.671Z,282.500000
2022-08-17T07:55:03.773Z,282.500000
2022-08-17T07:56:02.044Z,282.500000
2022-08-17T07:57:01.030Z,220.000000
2022-08-17T07:58:01.121Z,220.000000
2022-08-17T07:59:01.042Z,220.000000
2022-08-17T08:00:05.016Z,220.000000
2022-08-17T08:01:01.036Z,220.000000
2022-08-17T08:02:01.264Z,265.000000
2022-08-17T08:03:01.057Z,265.000000
2022-08-17T08:04:03.541Z,300.000000
2022-08-17T08:05:06.657Z,300.000000
2022-08-17T08:06:01.224Z,300.000000
2022-08-17T08:07:01.100Z,137.500000
2022-08-17T08:08:01.216Z,137.500000
2022-08-17T08:09:01.107Z,137.500000
2022-08-17T08:10:05.328Z,115.000000
2022-08-17T08:11:01.121Z,115.000000
2022-08-17T08:12:01.228Z,147.500000
2022-08-17T08:13:01.159Z,147.500000
2022-08-17T08:14:01.197Z,147.500000
2022-08-17T08:15:04.561Z,167.500000
2022-08-17T08:16:01.470Z,167.500000
2022-08-17T08:17:01.167Z,142.500000
2022-08-17T08:18:00.251Z,142.500000
2022-08-17T08:19:00.171Z,110.000000
2022-08-17T08:20:51.015Z,110.000000
2022-08-17T08:21:00.272Z,110.000000
2022-08-17T08:22:00.277Z,150.000000
2022-08-17T08:23:00.199Z,150.000000
2022-08-17T08:24:00.354Z,140.000000
2022-08-17T08:25:03.187Z,140.000000
2022-08-17T08:26:00.293Z,140.000000
2022-08-17T08:27:00.246Z,140.000000
2022-08-17T08:28:00.334Z,140.000000
2022-08-17T08:29:00.241Z,110.000000
2022-08-17T08:30:03.516Z,110.000000
2022-08-17T08:31:00.263Z,110.000000
2022-08-17T08:32:01.035Z,200.000000
2022-08-17T08:33:00.288Z,200.000000
2022-08-17T08:34:00.386Z,200.000000
2022-08-17T08:35:03.660Z,207.500000
2022-08-17T08:36:01.075Z,207.500000
2022-08-17T08:37:16.366Z,210.000000
2022-08-17T08:38:00.379Z,210.000000
2022-08-17T08:39:00.324Z,210.000000
2022-08-17T08:40:04.980Z,172.500000
2022-08-17T08:41:00.315Z,172.500000
2022-08-17T08:42:00.447Z,172.500000
2022-08-17T08:43:00.331Z,242.500000
2022-08-17T08:44:01.014Z,242.500000
2022-08-17T08:45:04.378Z,350.000000
2022-08-17T08:46:00.483Z,350.000000
2022-08-17T08:47:00.353Z,180.000000
2022-08-17T08:48:05.680Z,180.000000
2022-08-17T08:49:04.927Z,180.000000
2022-08-17T08:50:05.112Z,175.000000
2022-08-17T08:51:00.393Z,175.000000
2022-08-17T08:52:01.022Z,242.500000
2022-08-17T08:53:00.403Z,242.500000
2022-08-17T08:54:00.483Z,242.500000
2022-08-17T08:55:03.133Z,200.000000
2022-08-17T08:56:01.026Z,200.000000
2022-08-17T08:57:23.920Z,200.000000
2022-08-17T08:58:00.555Z,205.000000
2022-08-17T08:59:00.437Z,205.000000
2022-08-17T09:00:05.265Z,162.500000
2022-08-17T09:01:00.600Z,162.500000
2022-08-17T09:02:00.715Z,162.500000
2022-08-17T09:03:00.504Z,190.000000
2022-08-17T09:04:19.635Z,190.000000
2022-08-17T09:05:14.367Z,230.000000
2022-08-17T09:06:01.149Z,230.000000
2022-08-17T09:07:00.514Z,230.000000
2022-08-17T09:08:01.415Z,275.000000
2022-08-17T09:09:00.552Z,275.000000
2022-08-17T09:10:05.905Z,290.000000
2022-08-17T09:11:00.564Z,290.000000
2022-08-17T09:12:03.908Z,327.500000
2022-08-17T09:13:09.307Z,327.500000
2022-08-17T09:14:00.993Z,327.500000
2022-08-17T09:15:07.227Z,332.500000
2022-08-17T09:16:00.856Z,332.500000
2022-08-17T09:17:00.604Z,332.500000
2022-08-17T09:18:30.425Z,332.500000
2022-08-17T09:19:04.443Z,332.500000
2022-08-17T09:20:04.051Z,332.500000
2022-08-17T09:21:00.633Z,332.500000
2022-08-17T09:22:00.765Z,330.000000
2022-08-17T09:23:00.643Z,330.000000
2022-08-17T09:24:00.751Z,330.000000
2022-08-17T09:25:03.592Z,330.000000
2022-08-17T09:26:00.750Z,330.000000
2022-08-17T09:27:00.682Z,330.000000
2022-08-17T09:28:00.955Z,327.500000
2022-08-17T09:29:00.681Z,327.500000
2022-08-17T09:30:04.136Z,327.500000
2022-08-17T09:31:00.706Z,330.000000
2022-08-17T09:32:01.003Z,330.000000
2022-08-17T09:33:00.723Z,327.500000
2022-08-17T09:34:00.852Z,327.500000
2022-08-17T09:35:03.706Z,300.000000
2022-08-17T09:36:01.016Z,300.000000
2022-08-17T09:37:00.731Z,300.000000
2022-08-17T09:38:00.826Z,300.000000
2022-08-17T09:39:00.758Z,300.000000
2022-08-17T09:40:04.652Z,190.000000
2022-08-17T09:41:00.766Z,190.000000
2022-08-17T09:42:00.856Z,190.000000
2022-08-17T09:43:00.779Z,207.500000
2022-08-17T09:44:01.026Z,207.500000
2022-08-17T09:45:03.635Z,250.000000
2022-08-17T09:46:00.898Z,250.000000
2022-08-17T09:47:00.810Z,250.000000
2022-08-17T09:48:01.027Z,300.000000
2022-08-17T09:49:00.815Z,300.000000
2022-08-17T09:50:04.241Z,295.000000
2022-08-17T09:51:05.862Z,295.000000
2022-08-17T09:52:01.034Z,295.000000
2022-08-17T09:53:00.832Z,307.500000
2022-08-17T09:54:21.093Z,307.500000
2022-08-17T09:55:04.613Z,317.500000
2022-08-17T09:56:01.047Z,317.500000
2022-08-17T09:58:00.984Z,315.000000
2022-08-17T09:59:00.895Z,315.000000
2022-08-17T10:00:04.713Z,315.000000
2022-08-17T10:01:01.028Z,315.000000
2022-08-17T10:02:01.001Z,315.000000
2022-08-17T10:03:00.938Z,315.000000
2022-08-17T10:04:01.061Z,290.000000
2022-08-17T10:05:04.330Z,290.000000
2022-08-17T10:06:01.002Z,225.000000
2022-08-17T10:07:00.938Z,225.000000
2022-08-17T10:08:01.028Z,310.000000
2022-08-17T10:09:00.981Z,310.000000
2022-08-17T10:10:05.523Z,310.000000
2022-08-17T10:11:00.974Z,250.000000
2022-08-17T10:12:01.112Z,250.000000
2022-08-17T10:13:00.995Z,250.000000
2022-08-17T10:14:01.084Z,255.000000
2022-08-17T10:15:08.070Z,255.000000
2022-08-17T10:16:01.211Z,247.500000
2022-08-17T10:17:01.018Z,247.500000
2022-08-17T10:18:01.128Z,250.000000
2022-08-17T10:19:01.012Z,250.000000
2022-08-17T10:20:04.688Z,250.000000
2022-08-17T10:21:01.036Z,222.500000
2022-08-17T10:22:32.759Z,222.500000
2022-08-17T10:23:01.046Z,222.500000
2022-08-17T10:24:01.125Z,325.000000
2022-08-17T10:25:21.360Z,325.000000
2022-08-17T10:26:01.166Z,325.000000
2022-08-17T10:27:01.094Z,290.000000
2022-08-17T10:28:01.161Z,290.000000
2022-08-17T10:29:01.110Z,302.500000
2022-08-17T10:30:05.845Z,302.500000
2022-08-17T10:31:31.040Z,322.500000
2022-08-17T10:32:01.173Z,322.500000
2022-08-17T10:33:01.131Z,322.500000
2022-08-17T10:34:01.263Z,267.500000
2022-08-17T10:35:04.369Z,267.500000
2022-08-17T10:36:01.223Z,267.500000
2022-08-17T10:37:01.148Z,260.000000
2022-08-17T10:38:01.226Z,260.000000
2022-08-17T10:39:01.177Z,295.000000
2022-08-17T10:40:03.712Z,295.000000
2022-08-17T10:41:00.184Z,222.500000
2022-08-17T10:42:00.347Z,222.500000
2022-08-17T10:43:00.197Z,222.500000
2022-08-17T10:44:39.648Z,270.000000
2022-08-17T10:45:03.125Z,270.000000
2022-08-17T10:46:10.432Z,270.000000
2022-08-17T10:47:00.220Z,317.500000
2022-08-17T10:48:05.278Z,317.500000
2022-08-17T10:49:00.218Z,222.500000
2022-08-17T10:50:03.991Z,222.500000
2022-08-17T10:51:00.293Z,222.500000
2022-08-17T10:52:01.081Z,182.500000
2022-08-17T10:53:00.265Z,182.500000
2022-08-17T10:54:00.402Z,310.000000
2022-08-17T10:55:03.205Z,310.000000
2022-08-17T10:56:01.528Z,310.000000
2022-08-17T10:57:00.312Z,250.000000
2022-08-17T10:58:00.423Z,250.000000
2022-08-17T10:59:00.309Z,267.500000
2022-08-17T11:00:03.751Z,267.500000
2022-08-17T11:01:00.404Z,267.500000
2022-08-17T11:02:00.499Z,305.000000
2022-08-17T11:03:00.365Z,305.000000
2022-08-17T11:04:01.121Z,350.000000
2022-08-17T11:05:03.579Z,350.000000
2022-08-17T11:06:00.447Z,350.000000
2022-08-17T11:07:00.388Z,232.500000
2022-08-17T11:08:01.026Z,232.500000
2022-08-17T11:09:00.399Z,215.000000